createdAt,value
2023-02-19T00:00:38.004Z,63.97
2023-02-19T00:03:41.760Z,64.00
2023-02-19T00:06:45.526Z,64.32
2023-02-19T00:09:47.942Z,64.22
2023-02-19T00:12:50.850Z,64.78
2023-02-19T00:15:53.359Z,64.54
2023-02-19T00:18:58.018Z,64.57
2023-02-19T00:22:00.484Z,64.54
2023-02-19T00:25:02.756Z,64.75
2023-02-19T00:28:05.521Z,64.62
2023-02-19T00:31:19.936Z,64.67
2023-02-19T00:34:22.494Z,65.28
2023-02-19T00:37:24.667Z,64.99
2023-02-19T00:40:27.482Z,64.45
2023-02-19T00:43:29.671Z,64.87
2023-02-19T00:46:36.637Z,64.84
2023-02-19T00:49:38.868Z,65.04
2023-02-19T00:52:41.497Z,65.23
2023-02-19T00:55:43.840Z,65.29
2023-02-19T00:58:46.988Z,65.22
2023-02-19T01:01:49.774Z,65.67
2023-02-19T01:04:53.266Z,66.06
2023-02-19T01:07:55.466Z,66.36
2023-02-19T01:10:58.991Z,66.44
2023-02-19T01:14:02.370Z,66.63
2023-02-19T01:17:04.842Z,66.94
2023-02-19T01:20:07.326Z,66.95
2023-02-19T01:23:12.300Z,66.60
2023-02-19T01:26:17.385Z,66.62
2023-02-19T01:29:19.836Z,65.88
2023-02-19T01:32:22.018Z,65.94
2023-02-19T01:35:24.678Z,66.29
2023-02-19T01:38:27.770Z,66.89
2023-02-19T01:41:30.885Z,67.14
2023-02-19T01:44:32.980Z,67.79
2023-02-19T01:47:35.439Z,67.98
2023-02-19T01:50:48.282Z,68.03
2023-02-19T01:53:57.623Z,68.16
2023-02-19T01:57:04.268Z,68.16
2023-02-19T02:00:10.559Z,68.54
2023-02-19T02:03:14.642Z,69.10
2023-02-19T02:06:23.887Z,69.42
2023-02-19T02:09:48.237Z,69.57
2023-02-19T02:12:56.109Z,69.13
2023-02-19T02:16:07.791Z,69.47
2023-02-19T02:19:41.374Z,69.51
2023-02-19T02:22:46.022Z,68.99
2023-02-19T02:26:22.297Z,68.77
2023-02-19T02:30:02.015Z,68.50
2023-02-19T02:33:17.498Z,68.48
2023-02-19T02:36:31.130Z,68.66
2023-02-19T02:39:34.168Z,68.67
2023-02-19T02:42:40.083Z,69.67
2023-02-19T02:45:42.890Z,70.55
2023-02-19T02:48:53.868Z,71.60
2023-02-19T02:51:57.841Z,72.09
2023-02-19T02:55:03.175Z,72.61
2023-02-19T02:58:07.423Z,72.93
2023-02-19T03:01:41.856Z,73.93
2023-02-19T03:05:34.280Z,75.59
2023-02-19T03:08:47.244Z,76.42
2023-02-19T03:12:10.906Z,77.02
2023-02-19T03:15:34.713Z,77.72
2023-02-19T03:19:01.240Z,76.78
2023-02-19T03:22:14.326Z,76.75
2023-02-19T03:25:39.183Z,76.51
2023-02-19T03:29:03.217Z,76.54
2023-02-19T03:32:15.035Z,77.22
2023-02-19T03:35:22.427Z,76.96
2023-02-19T03:38:27.592Z,77.89
2023-02-19T03:41:51.319Z,78.49
2023-02-19T03:45:23.949Z,77.80
2023-02-19T03:48:35.040Z,78.29
2023-02-19T03:51:51.313Z,78.83
2023-02-19T03:54:56.207Z,78.32
2023-02-19T03:58:04.505Z,78.74
2023-02-19T04:01:37.668Z,78.70
2023-02-19T04:04:54.798Z,77.90
2023-02-19T04:08:04.711Z,78.49
2023-02-19T04:11:10.035Z,78.99
2023-02-19T04:14:24.703Z,78.91
2023-02-19T04:17:34.154Z,78.43
2023-02-19T04:20:43.892Z,78.97
2023-02-19T04:23:46.812Z,79.52
2023-02-19T04:26:49.360Z,79.90
2023-02-19T04:29:51.843Z,80.58
2023-02-19T04:32:54.123Z,80.58
2023-02-19T04:35:56.638Z,80.20
2023-02-19T04:38:59.142Z,81.05
2023-02-19T04:42:01.578Z,82.55
2023-02-19T04:45:04.105Z,82.76
2023-02-19T04:48:06.561Z,83.31
2023-02-19T04:51:10.653Z,83.49
2023-02-19T04:54:13.294Z,84.39
2023-02-19T04:57:15.586Z,84.26
2023-02-19T05:00:18.069Z,84.33
2023-02-19T05:03:20.262Z,85.31
2023-02-19T05:06:22.707Z,84.89
2023-02-19T05:09:24.926Z,84.85
2023-02-19T05:12:29.389Z,85.46
2023-02-19T05:15:31.580Z,85.49
2023-02-19T05:18:34.803Z,85.10
2023-02-19T05:21:37.140Z,85.18
2023-02-19T05:24:39.589Z,85.53
2023-02-19T05:27:41.778Z,86.01
2023-02-19T05:30:50.009Z,86.04
2023-02-19T05:33:52.952Z,86.37
2023-02-19T05:36:55.361Z,86.37
2023-02-19T05:39:57.496Z,86.40
2023-02-19T05:43:00.016Z,86.36
2023-02-19T05:46:02.219Z,86.50
2023-02-19T05:49:04.689Z,86.63
2023-02-19T05:52:06.815Z,87.09
2023-02-19T05:55:09.294Z,87.27
2023-02-19T05:58:11.426Z,87.41
2023-02-19T06:01:18.203Z,87.92
2023-02-19T06:04:21.180Z,88.52
2023-02-19T06:07:23.280Z,88.95
2023-02-19T06:10:25.760Z,89.02
2023-02-19T06:13:27.917Z,89.37
2023-02-19T06:16:32.201Z,89.45
2023-02-19T06:19:34.370Z,89.59
2023-02-19T06:22:36.918Z,89.78
2023-02-19T06:25:39.073Z,90.44
2023-02-19T06:28:42.359Z,90.42
2023-02-19T06:31:45.358Z,90.37
2023-02-19T06:34:47.886Z,90.20
2023-02-19T06:37:50.017Z,90.05
2023-02-19T06:40:52.443Z,90.25
2023-02-19T06:43:54.580Z,90.86
2023-02-19T06:46:57.142Z,91.53
2023-02-19T06:50:00.179Z,91.58
2023-02-19T06:53:02.734Z,91.48
2023-02-19T06:56:08.451Z,92.16
2023-02-19T06:59:13.896Z,91.79
2023-02-19T07:02:16.040Z,92.04
2023-02-19T07:05:18.468Z,92.10
2023-02-19T07:08:20.792Z,92.57
2023-02-19T07:11:24.221Z,92.69
2023-02-19T07:14:26.395Z,92.73
2023-02-19T07:17:28.873Z,92.49
2023-02-19T07:20:31.005Z,93.37
2023-02-19T07:23:33.734Z,92.87
2023-02-19T07:26:36.279Z,92.34
2023-02-19T07:29:38.828Z,92.29
2023-02-19T07:32:42.059Z,92.51
2023-02-19T07:35:48.215Z,92.49
2023-02-19T07:38:57.804Z,92.24
2023-02-19T07:42:00.610Z,91.73
2023-02-19T07:45:02.874Z,91.99
2023-02-19T07:48:05.335Z,91.48
2023-02-19T07:51:10.955Z,91.23
2023-02-19T07:54:13.677Z,90.18
2023-02-19T07:57:16.080Z,89.05
2023-02-19T08:00:19.978Z,88.65
2023-02-19T08:03:22.712Z,88.56
2023-02-19T08:06:24.902Z,88.74
2023-02-19T08:09:27.373Z,88.88
2023-02-19T08:12:48.190Z,90.44
2023-02-19T08:15:55.118Z,92.42
2023-02-19T08:18:58.319Z,96.01
2023-02-19T08:22:00.768Z,97.22
2023-02-19T08:25:03.077Z,99.80
2023-02-19T08:28:09.452Z,100.00
2023-02-19T08:31:12.806Z,100.00
2023-02-19T08:34:15.440Z,100.00
2023-02-19T08:37:17.593Z,100.00
2023-02-19T08:40:20.045Z,100.00
2023-02-19T08:43:22.177Z,100.00
2023-02-19T08:46:24.800Z,100.00
2023-02-19T08:49:27.301Z,100.00
2023-02-19T08:52:29.744Z,100.00
2023-02-19T08:55:32.628Z,100.00
2023-02-19T08:58:36.144Z,100.00
2023-02-19T09:01:38.369Z,100.00
2023-02-19T09:04:40.814Z,100.00
2023-02-19T09:07:43.248Z,100.00
2023-02-19T09:10:45.710Z,100.00
2023-02-19T09:13:47.886Z,100.00
2023-02-19T09:16:50.331Z,100.00
2023-02-19T09:19:52.562Z,100.00
2023-02-19T09:22:59.328Z,100.00
2023-02-19T09:26:03.146Z,100.00
2023-02-19T09:29:05.630Z,100.00
2023-02-19T09:32:07.848Z,100.00
2023-02-19T09:35:10.293Z,100.00
2023-02-19T09:38:12.423Z,100.00
2023-02-19T09:41:39.655Z,100.00
2023-02-19T09:44:45.466Z,100.00
2023-02-19T09:47:48.216Z,100.00
2023-02-19T09:50:50.870Z,100.00
2023-02-19T09:53:54.572Z,100.00
2023-02-19T09:56:59.933Z,100.00
2023-02-19T10:00:09.646Z,100.00
2023-02-19T10:03:22.042Z,100.00
2023-02-19T10:06:26.451Z,100.00
2023-02-19T10:09:30.531Z,100.00
2023-02-19T10:12:34.617Z,100.00
2023-02-19T10:15:42.551Z,100.00
2023-02-19T10:18:47.151Z,100.00
2023-02-19T10:21:49.618Z,100.00
2023-02-19T10:24:56.154Z,100.00
2023-02-19T10:28:00.001Z,100.00
2023-02-19T10:31:04.778Z,100.00
2023-02-19T10:34:18.983Z,100.00
2023-02-19T10:37:21.244Z,99.62
2023-02-19T10:40:27.311Z,99.04
2023-02-19T10:43:34.776Z,95.45
2023-02-19T10:46:43.488Z,91.27
2023-02-19T10:49:48.714Z,90.88
2023-02-19T10:52:54.572Z,89.76
2023-02-19T10:56:09.099Z,87.42
2023-02-19T10:59:26.478Z,83.56
2023-02-19T11:02:30.444Z,81.70
2023-02-19T11:05:32.961Z,80.78
2023-02-19T11:08:51.734Z,80.66
2023-02-19T11:11:56.532Z,77.89
2023-02-19T11:15:11.652Z,74.63
2023-02-19T11:18:14.056Z,74.49
2023-02-19T11:21:42.504Z,71.76
2023-02-19T11:24:49.727Z,70.87
2023-02-19T11:28:06.914Z,67.95
2023-02-19T11:31:20.182Z,68.20
2023-02-19T11:34:29.264Z,68.64
2023-02-19T11:37:31.645Z,67.30
2023-02-19T11:41:02.429Z,65.52
2023-02-19T11:44:04.690Z,64.89
2023-02-19T11:47:37.740Z,65.39
2023-02-19T11:51:04.905Z,64.62
2023-02-19T11:54:32.081Z,65.32
2023-02-19T11:57:47.713Z,65.28
2023-02-19T12:01:05.905Z,66.03
2023-02-19T12:04:45.785Z,64.57
2023-02-19T12:08:00.218Z,62.86
2023-02-19T12:11:08.712Z,62.37
2023-02-19T12:14:19.636Z,62.84
2023-02-19T12:17:25.014Z,61.73
2023-02-19T12:20:45.799Z,62.06
2023-02-19T12:24:16.267Z,61.36
2023-02-19T12:27:48.814Z,60.56
2023-02-19T12:31:10.652Z,60.95
2023-02-19T12:34:12.776Z,61.02
2023-02-19T12:37:31.054Z,60.89
2023-02-19T12:41:06.080Z,60.79
2023-02-19T12:44:22.970Z,60.19
2023-02-19T12:47:32.585Z,59.66
2023-02-19T12:50:39.074Z,59.86
2023-02-19T12:53:59.560Z,60.55
2023-02-19T12:57:06.639Z,60.94
2023-02-19T13:00:27.496Z,60.40
2023-02-19T13:03:41.538Z,60.52
2023-02-19T13:06:55.557Z,60.35
2023-02-19T13:10:19.061Z,58.93
2023-02-19T13:13:38.585Z,57.07
2023-02-19T13:16:44.099Z,59.88
2023-02-19T13:19:50.201Z,58.49
2023-02-19T13:23:19.704Z,60.13
2023-02-19T13:26:43.283Z,60.25
2023-02-19T13:30:10.182Z,60.12
2023-02-19T13:33:35.154Z,60.23
2023-02-19T13:36:37.938Z,59.39
2023-02-19T13:39:53.842Z,58.33
2023-02-19T13:42:59.621Z,58.19
2023-02-19T13:46:16.297Z,57.28
2023-02-19T13:49:27.598Z,58.08
2023-02-19T13:52:29.733Z,59.11
2023-02-19T13:55:46.710Z,62.71
2023-02-19T13:58:56.021Z,63.95
2023-02-19T14:01:58.535Z,64.05
2023-02-19T14:05:11.327Z,65.09
2023-02-19T14:08:13.505Z,68.35
2023-02-19T14:11:17.640Z,74.37
2023-02-19T14:14:35.493Z,81.72
2023-02-19T14:17:41.793Z,82.07
2023-02-19T14:20:45.470Z,85.36
2023-02-19T14:23:54.269Z,87.26
2023-02-19T14:26:57.443Z,90.38
2023-02-19T14:30:00.392Z,91.73
2023-02-19T14:33:10.761Z,89.86
2023-02-19T14:36:32.108Z,92.87
2023-02-19T14:39:38.818Z,94.65
2023-02-19T14:42:41.581Z,94.69
2023-02-19T14:45:56.727Z,96.64
2023-02-19T14:49:07.809Z,94.28
2023-02-19T14:52:28.375Z,94.96
2023-02-19T14:55:37.832Z,97.25
2023-02-19T14:58:40.653Z,95.09
2023-02-19T15:01:43.115Z,94.82
2023-02-19T15:04:45.287Z,93.08
2023-02-19T15:07:48.128Z,89.64
2023-02-19T15:10:50.387Z,91.82
2023-02-19T15:13:58.814Z,90.07
2023-02-19T15:17:04.185Z,89.96
2023-02-19T15:20:16.312Z,88.75
2023-02-19T15:23:24.538Z,89.17
2023-02-19T15:26:35.773Z,90.25
2023-02-19T15:29:45.124Z,89.33
2023-02-19T15:32:58.896Z,87.61
2023-02-19T15:36:05.751Z,88.71
2023-02-19T15:39:19.361Z,89.21
2023-02-19T15:42:25.876Z,89.55
2023-02-19T15:45:44.104Z,90.69
2023-02-19T15:48:54.217Z,89.12
2023-02-19T15:52:05.789Z,88.13
2023-02-19T15:55:30.209Z,86.67
2023-02-19T15:59:23.560Z,85.65
2023-02-19T16:02:27.705Z,86.11
2023-02-19T16:05:31.091Z,86.89
2023-02-19T16:08:35.487Z,84.31
2023-02-19T16:11:51.616Z,83.58
2023-02-19T16:14:53.899Z,82.08
2023-02-19T16:17:58.190Z,81.87
2023-02-19T16:21:02.658Z,81.13
2023-02-19T16:24:24.844Z,82.34
2023-02-19T16:27:47.286Z,81.72
2023-02-19T16:30:58.427Z,80.80
2023-02-19T16:34:17.555Z,80.68
2023-02-19T16:37:38.430Z,81.87
2023-02-19T16:40:50.677Z,80.50
2023-02-19T16:43:53.185Z,82.70
2023-02-19T16:47:04.837Z,83.04
2023-02-19T16:50:14.121Z,86.69
2023-02-19T16:53:22.405Z,85.11
2023-02-19T16:56:25.285Z,85.73
2023-02-19T16:59:27.395Z,87.91
2023-02-19T17:02:30.531Z,88.53
2023-02-19T17:05:33.674Z,87.33
2023-02-19T17:08:46.301Z,86.58
2023-02-19T17:11:48.522Z,86.07
2023-02-19T17:14:50.917Z,85.40
2023-02-19T17:17:53.111Z,86.33
2023-02-19T17:21:01.703Z,86.46
2023-02-19T17:24:04.015Z,86.56
2023-02-19T17:27:12.886Z,86.52
2023-02-19T17:30:25.601Z,85.74
2023-02-19T17:33:28.047Z,84.93
2023-02-19T17:36:31.884Z,85.42
2023-02-19T17:39:34.285Z,81.58
2023-02-19T17:42:36.442Z,79.86
2023-02-19T17:45:38.874Z,80.22
2023-02-19T17:48:41.268Z,80.60
2023-02-19T17:51:43.788Z,80.13
2023-02-19T17:54:45.935Z,79.97
2023-02-19T17:57:50.316Z,80.29
2023-02-19T18:00:52.598Z,78.94
2023-02-19T18:03:55.159Z,80.22
2023-02-19T18:06:57.390Z,78.94
2023-02-19T18:09:59.990Z,78.86
2023-02-19T18:13:02.097Z,79.44
2023-02-19T18:16:05.931Z,79.43
2023-02-19T18:19:08.082Z,79.38
2023-02-19T18:22:10.787Z,80.41
2023-02-19T18:25:13.226Z,80.79
2023-02-19T18:28:16.608Z,79.32
2023-02-19T18:31:18.939Z,79.31
2023-02-19T18:34:21.939Z,78.16
2023-02-19T18:37:25.436Z,79.84
2023-02-19T18:40:28.707Z,79.64
2023-02-19T18:43:30.827Z,80.13
2023-02-19T18:46:33.262Z,79.11
2023-02-19T18:49:35.615Z,79.13
2023-02-19T18:52:38.017Z,79.77
2023-02-19T18:55:40.337Z,80.13
2023-02-19T18:58:42.872Z,81.93
2023-02-19T19:01:45.223Z,82.65
2023-02-19T19:04:52.991Z,84.36
2023-02-19T19:07:57.618Z,81.36
2023-02-19T19:11:00.044Z,80.79
2023-02-19T19:14:03.370Z,81.80
2023-02-19T19:17:06.078Z,82.79
2023-02-19T19:20:09.978Z,83.03
2023-02-19T19:23:13.208Z,81.13
2023-02-19T19:26:16.213Z,80.13
2023-02-19T19:29:22.082Z,82.43
2023-02-19T19:32:24.403Z,81.93
2023-02-19T19:35:28.615Z,84.04
2023-02-19T19:38:30.805Z,84.94
2023-02-19T19:41:33.308Z,83.15
2023-02-19T19:44:35.504Z,81.63
2023-02-19T19:47:37.911Z,81.90
2023-02-19T19:50:40.020Z,81.93
2023-02-19T19:53:42.649Z,82.98
2023-02-19T19:56:47.671Z,81.84
2023-02-19T19:59:53.782Z,82.26
2023-02-19T20:02:55.992Z,82.18
2023-02-19T20:05:58.481Z,81.14
2023-02-19T20:09:00.766Z,81.86
2023-02-19T20:12:04.404Z,80.92
2023-02-19T20:15:08.334Z,80.94
2023-02-19T20:18:11.090Z,80.44
2023-02-19T20:21:13.592Z,80.28
2023-02-19T20:24:18.340Z,78.84
2023-02-19T20:27:22.135Z,78.79
2023-02-19T20:30:25.272Z,78.76
2023-02-19T20:33:27.439Z,78.46
2023-02-19T20:36:30.101Z,78.31
2023-02-19T20:39:32.759Z,77.47
2023-02-19T20:42:35.200Z,76.35
2023-02-19T20:45:37.312Z,76.42
2023-02-19T20:48:39.775Z,76.84
2023-02-19T20:51:46.862Z,77.24
2023-02-19T20:54:49.315Z,77.46
2023-02-19T20:57:51.425Z,77.84
2023-02-19T21:00:54.252Z,77.23
2023-02-19T21:03:56.414Z,77.60
2023-02-19T21:06:59.306Z,77.80
2023-02-19T21:10:01.437Z,78.04
2023-02-19T21:13:03.968Z,78.06
2023-02-19T21:16:06.359Z,77.39
2023-02-19T21:19:08.816Z,75.71
2023-02-19T21:22:10.963Z,74.62
2023-02-19T21:25:13.355Z,75.83
2023-02-19T21:28:15.450Z,75.45
2023-02-19T21:31:18.174Z,75.74
2023-02-19T21:34:24.237Z,75.61
2023-02-19T21:37:26.763Z,75.57
2023-02-19T21:40:31.837Z,76.09
2023-02-19T21:43:34.247Z,75.19
2023-02-19T21:46:36.467Z,75.83
2023-02-19T21:49:41.745Z,76.15
2023-02-19T21:52:43.859Z,77.07
2023-02-19T21:55:58.035Z,76.54
2023-02-19T21:59:01.221Z,76.00
2023-02-19T22:02:03.710Z,74.62
2023-02-19T22:05:06.613Z,75.23
2023-02-19T22:08:08.765Z,72.59
2023-02-19T22:11:11.447Z,69.95
2023-02-19T22:14:13.599Z,69.32
2023-02-19T22:17:16.178Z,67.08
2023-02-19T22:20:19.553Z,65.66
2023-02-19T22:23:21.991Z,66.66
2023-02-19T22:26:35.662Z,66.31
2023-02-19T22:29:38.058Z,65.33
2023-02-19T22:32:41.060Z,67.06
2023-02-19T22:35:43.524Z,66.64
2023-02-19T22:38:46.234Z,66.22
2023-02-19T22:41:49.203Z,65.14
2023-02-19T22:44:51.316Z,65.03
2023-02-19T22:47:55.402Z,64.22
2023-02-19T22:50:58.887Z,65.11
2023-02-19T22:54:01.496Z,64.41
2023-02-19T22:57:04.570Z,65.24
2023-02-19T23:00:08.655Z,64.17
2023-02-19T23:03:10.792Z,65.31
2023-02-19T23:06:13.947Z,64.60
2023-02-19T23:09:20.534Z,64.43
2023-02-19T23:12:23.232Z,63.91
2023-02-19T23:15:25.347Z,64.11
2023-02-19T23:18:27.770Z,63.63
2023-02-19T23:21:29.947Z,63.33
2023-02-19T23:24:32.451Z,62.54
2023-02-19T23:27:34.597Z,61.75
2023-02-19T23:30:37.085Z,62.15
2023-02-19T23:33:39.808Z,61.80
2023-02-19T23:36:47.772Z,62.95
2023-02-19T23:39:49.953Z,61.96
2023-02-19T23:42:52.446Z,61.66
2023-02-19T23:45:54.628Z,61.79
2023-02-19T23:48:57.036Z,61.17
2023-02-19T23:51:59.166Z,62.10
2023-02-19T23:55:01.548Z,61.38
2023-02-19T23:58:03.698Z,62.11
